Terminal Aerodrome Forecast
Issued by NWS Duluth, MN

Home | Current Version | Previous Version | Text Only | Print | Product List | Glossary On
Versions: 1 2 3 4 5 6 7 8 9 10 11 12 13 14 15 16 17 18 19 20 21 22 23 24 25 26 27 28 29 30 31 32
641
FTUS43 KDLH 280221 AAB
TAFDLH
TAF AMD
KDLH 280221Z 2802/2824 07007KT 3SM BR VCSH OVC002
     FM280500 07004KT 3/4SM BR OVC002
     FM281400 VRB04KT 4SM BR OVC007
     FM282200 VRB04KT P6SM SCT020 BKN120=

USA.gov is the U.S. government's official web portal to all federal, state and local government web resources and services.